createdAt,value
2023-05-23T00:01:14.906Z,15.60
2023-05-23T00:06:21.446Z,15.60
2023-05-23T00:11:27.568Z,15.60
2023-05-23T00:16:31.093Z,15.60
2023-05-23T00:21:34.630Z,15.60
2023-05-23T00:26:39.617Z,15.50
2023-05-23T00:31:46.492Z,15.50
2023-05-23T00:36:50.990Z,15.40
2023-05-23T00:41:56.345Z,15.30
2023-05-23T00:47:00.454Z,15.20
2023-05-23T00:52:04.518Z,15.20
2023-05-23T00:57:09.494Z,15.10
2023-05-23T01:02:14.171Z,15.20
2023-05-23T01:07:17.725Z,15.00
2023-05-23T01:12:29.658Z,14.90
2023-05-23T01:17:42.164Z,14.80
2023-05-23T01:23:11.817Z,14.80
2023-05-23T01:28:20.036Z,14.80
2023-05-23T01:33:27.684Z,14.90
2023-05-23T01:38:31.345Z,14.90
2023-05-23T01:43:36.549Z,14.90
2023-05-23T01:48:40.723Z,14.90
2023-05-23T01:53:44.477Z,15.00
2023-05-23T01:58:49.462Z,15.10
2023-05-23T02:03:53.010Z,15.20
2023-05-23T02:08:57.810Z,15.20
2023-05-23T02:14:02.690Z,15.20
2023-05-23T02:19:06.475Z,15.20
2023-05-23T02:24:09.935Z,15.30
2023-05-23T02:29:15.354Z,15.40
2023-05-23T02:34:18.734Z,15.30
2023-05-23T02:39:22.296Z,15.20
2023-05-23T02:44:28.089Z,15.20
2023-05-23T02:49:31.478Z,15.20
2023-05-23T02:54:34.951Z,15.20
2023-05-23T02:59:39.796Z,15.20
2023-05-23T03:04:43.348Z,15.20
2023-05-23T03:09:46.798Z,15.50
2023-05-23T03:14:52.130Z,15.80
2023-05-23T03:19:55.991Z,15.90
2023-05-23T03:24:59.512Z,16.00
2023-05-23T03:30:06.211Z,15.80
2023-05-23T03:35:10.383Z,15.80
2023-05-23T03:40:14.212Z,15.70
2023-05-23T03:45:19.106Z,15.60
2023-05-23T03:50:22.760Z,15.60
2023-05-23T03:55:26.427Z,15.60
2023-05-23T04:00:31.423Z,15.70
2023-05-23T04:05:36.614Z,15.70
2023-05-23T04:10:43.110Z,15.80
2023-05-23T04:15:48.309Z,15.70
2023-05-23T04:20:54.245Z,15.80
2023-05-23T04:25:58.720Z,15.80
2023-05-23T04:31:08.145Z,15.70
2023-05-23T04:36:13.475Z,15.60
2023-05-23T04:41:23.528Z,15.70
2023-05-23T04:46:42.030Z,15.70
2023-05-23T04:51:49.906Z,15.70
2023-05-23T04:57:01.821Z,15.80
2023-05-23T05:02:07.906Z,15.80
2023-05-23T05:07:12.472Z,16.00
2023-05-23T05:12:16.735Z,16.00
2023-05-23T05:17:21.659Z,15.90
2023-05-23T05:22:43.133Z,16.00
2023-05-23T05:27:48.948Z,15.90
2023-05-23T05:32:58.271Z,15.90
2023-05-23T05:38:05.146Z,16.00
2023-05-23T05:43:08.749Z,16.10
2023-05-23T05:48:14.122Z,16.00
2023-05-23T05:53:17.720Z,16.00
2023-05-23T05:58:21.442Z,16.00
2023-05-23T06:03:32.836Z,16.00
2023-05-23T06:08:38.957Z,16.10
2023-05-23T06:13:44.451Z,16.30
2023-05-23T06:18:51.019Z,16.50
2023-05-23T06:23:55.537Z,16.70
2023-05-23T06:28:59.476Z,17.00
2023-05-23T06:34:05.257Z,16.90
2023-05-23T06:39:10.049Z,17.10
2023-05-23T06:44:14.886Z,17.40
2023-05-23T06:49:20.064Z,18.00
2023-05-23T06:54:24.626Z,18.70
2023-05-23T06:59:29.159Z,19.70
2023-05-23T07:04:34.109Z,20.30
2023-05-23T07:09:43.172Z,20.40
2023-05-23T07:14:51.609Z,20.10
2023-05-23T07:19:58.351Z,19.80
2023-05-23T07:25:02.703Z,19.50
2023-05-23T07:30:10.003Z,19.00
2023-05-23T07:35:17.016Z,19.10
2023-05-23T07:40:22.675Z,19.50
2023-05-23T07:45:26.266Z,19.90
2023-05-23T07:50:31.664Z,20.20
2023-05-23T07:55:36.083Z,23.80
2023-05-23T08:00:41.828Z,24.50
2023-05-23T08:05:58.788Z,23.80
2023-05-23T08:11:02.509Z,24.20
2023-05-23T08:16:15.645Z,26.10
2023-05-23T08:21:20.628Z,27.10
2023-05-23T08:26:24.315Z,27.40
2023-05-23T08:31:28.716Z,27.80
2023-05-23T08:36:37.061Z,27.80
2023-05-23T08:41:42.972Z,26.20
2023-05-23T08:46:53.040Z,26.00
2023-05-23T08:52:17.251Z,26.60
2023-05-23T08:57:24.942Z,26.30
2023-05-23T09:02:34.669Z,26.30
2023-05-23T09:07:51.416Z,25.50
2023-05-23T09:12:55.570Z,24.90
2023-05-23T09:18:03.640Z,24.50
2023-05-23T09:23:13.910Z,24.70
2023-05-23T09:28:17.891Z,24.40
2023-05-23T09:33:22.403Z,24.90
2023-05-23T09:38:28.507Z,26.00
2023-05-23T09:43:32.129Z,25.50
2023-05-23T09:48:36.040Z,24.20
2023-05-23T09:53:41.099Z,24.40
2023-05-23T09:58:47.598Z,25.50
2023-05-23T10:03:57.314Z,28.00
2023-05-23T10:09:05.145Z,29.60
2023-05-23T10:14:10.829Z,27.00
2023-05-23T10:19:23.840Z,25.80
2023-05-23T10:24:29.149Z,25.00
2023-05-23T10:29:33.935Z,25.00
2023-05-23T10:34:41.908Z,25.30
2023-05-23T10:39:57.357Z,24.90
2023-05-23T10:45:18.328Z,23.90
2023-05-23T10:50:34.138Z,22.70
2023-05-23T10:55:39.034Z,22.30
2023-05-23T11:00:50.600Z,23.30
2023-05-23T11:05:54.262Z,23.60
2023-05-23T11:11:02.243Z,23.10
2023-05-23T11:16:23.952Z,22.30
2023-05-23T11:21:30.107Z,21.50
2023-05-23T11:26:35.004Z,21.60
2023-05-23T11:31:38.621Z,22.30
2023-05-23T11:36:42.271Z,22.30
2023-05-23T11:41:58.546Z,21.70
2023-05-23T11:47:03.406Z,21.70
2023-05-23T11:52:07.223Z,21.60
2023-05-23T11:57:14.105Z,21.40
2023-05-23T12:02:17.840Z,21.20
2023-05-23T12:07:21.489Z,21.10
2023-05-23T12:12:26.448Z,21.20
2023-05-23T12:17:30.338Z,20.70
2023-05-23T12:22:33.891Z,20.40
2023-05-23T12:27:40.704Z,20.40
2023-05-23T12:32:45.593Z,20.50
2023-05-23T12:37:48.936Z,21.00
2023-05-23T12:42:54.922Z,21.20
2023-05-23T12:47:58.286Z,21.00
2023-05-23T12:53:01.651Z,20.50
2023-05-23T12:58:07.252Z,20.00
2023-05-23T13:03:10.839Z,19.40
2023-05-23T13:08:14.340Z,19.10
2023-05-23T13:13:19.707Z,18.80
2023-05-23T13:18:23.320Z,18.70
2023-05-23T13:23:26.795Z,18.50
2023-05-23T14:21:25.790Z,18.50
2023-05-23T14:26:29.408Z,18.20
2023-05-23T14:31:32.777Z,18.00
2023-05-23T14:36:37.742Z,17.80
2023-05-23T14:41:41.147Z,17.80
2023-05-23T14:46:48.480Z,17.60
2023-05-23T14:51:53.315Z,16.90
2023-05-23T14:56:56.863Z,16.90
2023-05-23T15:02:00.386Z,16.70
2023-05-23T15:07:05.866Z,16.40
2023-05-23T15:12:09.986Z,16.20
2023-05-23T15:17:19.764Z,16.00
2023-05-23T15:22:37.652Z,15.70
2023-05-23T15:27:42.611Z,15.90
2023-05-23T15:32:47.860Z,16.00
2023-05-23T15:37:52.562Z,16.00
2023-05-23T15:42:56.416Z,15.60
2023-05-23T15:47:59.858Z,15.10
2023-05-23T15:53:04.786Z,15.10
2023-05-23T15:58:09.491Z,14.90
2023-05-23T16:03:13.176Z,14.60
2023-05-23T16:08:18.838Z,14.30
2023-05-23T16:13:22.298Z,14.20
2023-05-23T16:18:25.725Z,14.30
2023-05-23T16:23:30.656Z,14.20
2023-05-23T16:28:34.012Z,14.10
2023-05-23T16:33:38.097Z,14.10
2023-05-23T16:38:42.867Z,14.10
2023-05-23T16:43:46.516Z,14.00
2023-05-23T16:48:50.068Z,13.90
2023-05-23T16:53:54.813Z,13.90
2023-05-23T16:58:58.216Z,13.90
2023-05-23T17:04:01.621Z,13.90
2023-05-23T17:09:06.464Z,13.80
2023-05-23T17:14:10.127Z,13.80
2023-05-23T17:19:14.273Z,13.60
2023-05-23T17:24:19.433Z,13.80
2023-05-23T17:29:22.904Z,13.60
2023-05-23T17:34:26.452Z,13.60
2023-05-23T17:39:31.233Z,13.60
2023-05-23T17:44:35.154Z,13.40
2023-05-23T17:49:38.863Z,13.40
2023-05-23T17:54:43.472Z,13.30
2023-05-23T17:59:46.983Z,13.20
2023-05-23T18:04:51.052Z,13.30
2023-05-23T18:09:59.638Z,13.30
2023-05-23T18:15:03.356Z,13.30
2023-05-23T18:20:08.604Z,13.40
2023-05-23T18:25:19.309Z,13.50
2023-05-23T18:30:22.958Z,13.50
2023-05-23T18:35:26.462Z,13.60
2023-05-23T18:40:31.342Z,13.50
2023-05-23T18:45:36.793Z,13.50
2023-05-23T18:50:40.382Z,13.60
2023-05-23T18:55:45.233Z,13.40
2023-05-23T19:00:49.087Z,13.50
2023-05-23T19:05:52.660Z,13.40
2023-05-23T19:10:58.633Z,13.50
2023-05-23T19:16:02.166Z,13.40
2023-05-23T19:21:05.943Z,13.30
2023-05-23T19:26:11.010Z,13.50
2023-05-23T19:31:14.481Z,13.20
2023-05-23T19:36:18.559Z,13.30
2023-05-23T19:41:23.302Z,13.40
2023-05-23T19:46:28.829Z,13.50
2023-05-23T19:51:32.547Z,13.40
2023-05-23T19:56:38.297Z,13.60
2023-05-23T20:01:41.947Z,13.70
2023-05-23T20:06:45.410Z,13.50
2023-05-23T20:11:50.120Z,13.50
2023-05-23T20:16:53.985Z,13.50
2023-05-23T20:21:57.437Z,13.50
2023-05-23T20:27:02.533Z,13.40
2023-05-23T20:32:06.880Z,13.30
2023-05-23T20:37:13.891Z,13.10
2023-05-23T20:42:19.139Z,13.00
2023-05-23T20:47:22.353Z,12.80
2023-05-23T20:52:26.100Z,12.70
2023-05-23T20:57:30.950Z,12.50
2023-05-23T21:02:34.439Z,12.40
2023-05-23T21:07:38.352Z,12.30
2023-05-23T21:12:49.283Z,12.10
2023-05-23T21:17:53.540Z,12.10
2023-05-23T21:22:58.059Z,12.10
2023-05-23T21:28:03.178Z,12.10
2023-05-23T21:33:31.889Z,12.10
2023-05-23T21:38:37.477Z,11.90
2023-05-23T21:43:43.177Z,11.90
2023-05-23T21:48:46.689Z,11.70
2023-05-23T21:53:50.227Z,11.60
2023-05-23T21:58:54.962Z,11.60
2023-05-23T22:03:58.425Z,11.40
2023-05-23T22:09:01.906Z,11.50
2023-05-23T22:14:06.625Z,11.30
2023-05-23T22:19:12.405Z,11.30
2023-05-23T22:24:16.670Z,11.20
2023-05-23T22:29:21.691Z,11.20
2023-05-23T22:34:25.054Z,11.10
2023-05-23T22:39:28.376Z,11.10
2023-05-23T22:44:33.244Z,11.00
2023-05-23T22:49:37.599Z,10.90
2023-05-23T22:54:41.067Z,10.90
2023-05-23T22:59:45.875Z,10.90
2023-05-23T23:04:49.239Z,10.80
2023-05-23T23:09:52.571Z,10.70
2023-05-23T23:14:57.420Z,10.70
2023-05-23T23:20:01.197Z,10.80
2023-05-23T23:25:06.706Z,10.70
2023-05-23T23:30:11.681Z,10.60
2023-05-23T23:35:15.318Z,10.50
2023-05-23T23:40:18.796Z,10.60
2023-05-23T23:45:23.557Z,10.70
2023-05-23T23:50:26.976Z,10.80
2023-05-23T23:55:30.838Z,10.70
